createdAt,value
2023-02-04T00:00:56.147Z,101494.78
2023-02-04T00:03:24.721Z,101491.41
2023-02-04T00:05:53.152Z,101495.03
2023-02-04T00:08:21.762Z,101503.53
2023-02-04T00:10:50.424Z,101509.59
2023-02-04T00:13:20.401Z,101507.94
2023-02-04T00:15:48.862Z,101530.22
2023-02-04T00:18:17.319Z,101520.81
2023-02-04T00:20:45.920Z,101527.66
2023-02-04T00:23:14.726Z,101532.94
2023-02-04T00:25:43.227Z,101527.66
2023-02-04T00:28:11.713Z,101531.00
2023-02-04T00:30:41.762Z,101534.34
2023-02-04T00:33:10.916Z,101544.56
2023-02-04T00:35:39.372Z,101543.53
2023-02-04T00:38:08.921Z,101545.22
2023-02-04T00:40:37.448Z,101550.16
2023-02-04T00:43:06.686Z,101557.06
2023-02-04T00:45:35.129Z,101547.44
2023-02-04T00:48:05.294Z,101550.78
2023-02-04T00:50:39.603Z,101552.47
2023-02-04T00:53:08.319Z,101549.88
2023-02-04T00:55:36.973Z,101546.53
2023-02-04T00:58:06.428Z,101548.34
2023-02-04T01:00:34.956Z,101544.72
2023-02-04T01:03:05.140Z,101556.06
2023-02-04T01:05:33.658Z,101560.34
2023-02-04T01:08:04.565Z,101557.75
2023-02-04T01:10:33.509Z,101562.91
2023-02-04T01:13:03.240Z,101556.84
2023-02-04T01:15:31.649Z,101554.28
2023-02-04T01:18:00.045Z,101565.34
2023-02-04T01:20:30.937Z,101577.47
2023-02-04T01:22:59.542Z,101579.28
2023-02-04T01:25:28.289Z,101584.44
2023-02-04T01:27:56.847Z,101586.25
2023-02-04T01:30:25.259Z,101584.44
2023-02-04T01:32:53.721Z,101583.53
2023-02-04T01:35:22.238Z,101592.31
2023-02-04T01:37:52.155Z,101596.78
2023-02-04T01:40:21.079Z,101591.41
2023-02-04T01:42:49.555Z,101604.53
2023-02-04T01:45:18.087Z,101600.91
2023-02-04T01:47:47.692Z,101600.41
2023-02-04T01:50:18.377Z,101601.31
2023-02-04T01:52:47.307Z,101613.31
2023-02-04T01:55:21.872Z,101604.78
2023-02-04T01:57:52.889Z,101601.41
2023-02-04T02:00:27.523Z,101600.91
2023-02-04T02:02:56.626Z,101613.00
2023-02-04T02:05:29.539Z,101615.56
2023-02-04T02:08:03.646Z,101626.78
2023-02-04T02:10:34.346Z,101629.38
2023-02-04T02:13:04.882Z,101624.34
2023-02-04T02:15:36.548Z,101624.63
2023-02-04T02:18:05.537Z,101617.88
2023-02-04T02:20:34.733Z,101618.66
2023-02-04T02:23:08.262Z,101622.03
2023-02-04T02:25:39.533Z,101629.63
2023-02-04T02:28:11.681Z,101638.16
2023-02-04T02:30:42.342Z,101640.59
2023-02-04T02:33:11.050Z,101632.75
2023-02-04T02:35:39.459Z,101627.84
2023-02-04T02:38:07.888Z,101639.06
2023-02-04T02:40:37.976Z,101636.47
2023-02-04T02:43:07.683Z,101634.53
2023-02-04T02:45:37.479Z,101631.84
2023-02-04T02:48:06.078Z,101633.63
2023-02-04T02:50:35.343Z,101630.03
2023-02-04T02:53:05.251Z,101635.19
2023-02-04T02:55:33.854Z,101638.56
2023-02-04T02:58:07.021Z,101640.09
2023-02-04T03:00:35.505Z,101644.13
2023-02-04T03:03:10.378Z,101640.50
2023-02-04T03:05:43.658Z,101637.81
2023-02-04T03:08:15.288Z,101653.53
2023-02-04T03:10:44.778Z,101649.03
2023-02-04T03:13:17.732Z,101651.72
2023-02-04T03:15:49.192Z,101643.22
2023-02-04T03:18:20.482Z,101651.72
2023-02-04T03:20:50.319Z,101652.50
2023-02-04T03:23:19.366Z,101645.56
2023-02-04T03:25:48.186Z,101646.34
2023-02-04T03:28:18.225Z,101661.81
2023-02-04T03:30:56.142Z,101653.94
2023-02-04T03:33:26.245Z,101661.81
2023-02-04T03:35:54.966Z,101653.94
2023-02-04T03:38:23.387Z,101655.47
2023-02-04T03:40:52.061Z,101665.69
2023-02-04T03:43:21.929Z,101665.69
2023-02-04T03:45:50.403Z,101675.09
2023-02-04T03:48:18.978Z,101672.63
2023-02-04T03:50:47.417Z,101667.22
2023-02-04T03:53:15.822Z,101671.47
2023-02-04T03:55:44.301Z,101680.13
2023-02-04T03:58:12.769Z,101674.06
2023-02-04T04:00:42.578Z,101675.59
2023-02-04T04:03:11.705Z,101685.03
2023-02-04T04:05:40.190Z,101690.06
2023-02-04T04:08:08.696Z,101683.22
2023-02-04T04:10:37.149Z,101678.97
2023-02-04T04:13:05.661Z,101685.91
2023-02-04T04:15:34.310Z,101695.34
2023-02-04T04:18:05.631Z,101698.03
2023-02-04T04:20:34.693Z,101699.59
2023-02-04T04:23:03.768Z,101701.28
2023-02-04T04:25:32.253Z,101705.53
2023-02-04T04:28:00.750Z,101710.56
2023-02-04T04:30:29.923Z,101710.56
2023-02-04T04:32:58.699Z,101714.81
2023-02-04T04:35:28.454Z,101723.44
2023-02-04T04:37:56.818Z,101738.16
2023-02-04T04:40:25.587Z,101732.72
2023-02-04T04:42:54.077Z,101736.09
2023-02-04T04:45:22.993Z,101726.69
2023-02-04T04:47:51.689Z,101727.47
2023-02-04T04:50:20.584Z,101720.63
2023-02-04T04:52:50.572Z,101722.41
2023-02-04T04:55:19.319Z,101715.47
2023-02-04T04:57:47.916Z,101720.63
2023-02-04T05:00:21.214Z,101739.69
2023-02-04T05:02:52.645Z,101737.09
2023-02-04T05:05:21.076Z,101740.59
2023-02-04T05:07:51.400Z,101737.88
2023-02-04T05:10:20.760Z,101744.84
2023-02-04T05:12:49.176Z,101747.56
2023-02-04T05:15:17.795Z,101754.66
2023-02-04T05:17:46.424Z,101753.84
2023-02-04T05:20:14.848Z,101754.75
2023-02-04T05:22:43.245Z,101757.34
2023-02-04T05:25:13.204Z,101757.34
2023-02-04T05:27:41.794Z,101753.09
2023-02-04T05:30:12.789Z,101763.53
2023-02-04T05:32:41.425Z,101765.97
2023-02-04T05:35:10.481Z,101775.38
2023-02-04T05:37:39.071Z,101769.31
2023-02-04T05:40:09.107Z,101767.78
2023-02-04T05:42:39.354Z,101768.56
2023-02-04T05:45:08.944Z,101759.00
2023-02-04T05:47:37.483Z,101771.28
2023-02-04T05:50:07.020Z,101776.28
2023-02-04T05:52:35.466Z,101784.03
2023-02-04T05:55:04.025Z,101789.94
2023-02-04T05:57:32.529Z,101783.78
2023-02-04T06:00:02.443Z,101781.22
2023-02-04T06:02:40.677Z,101786.38
2023-02-04T06:05:09.735Z,101794.88
2023-02-04T06:07:38.444Z,101803.66
2023-02-04T06:10:07.254Z,101802.75
2023-02-04T06:12:35.835Z,101804.41
2023-02-04T06:15:06.849Z,101804.41
2023-02-04T06:17:35.302Z,101808.81
2023-02-04T06:20:03.924Z,101815.75
2023-02-04T06:22:32.405Z,101818.31
2023-02-04T06:25:01.265Z,101819.34
2023-02-04T06:27:29.752Z,101822.06
2023-02-04T06:29:58.877Z,101824.66
2023-02-04T06:32:29.064Z,101834.06
2023-02-04T06:34:57.623Z,101827.09
2023-02-04T06:37:26.055Z,101828.91
2023-02-04T06:39:54.804Z,101816.00
2023-02-04T06:42:23.329Z,101811.63
2023-02-04T06:44:51.724Z,101829.69
2023-02-04T06:47:20.939Z,101828.78
2023-02-04T06:49:51.046Z,101833.03
2023-02-04T06:52:19.504Z,101833.78
2023-02-04T06:54:47.970Z,101827.72
2023-02-04T06:57:16.456Z,101834.59
2023-02-04T06:59:44.814Z,101834.44
2023-02-04T07:02:13.926Z,101835.47
2023-02-04T07:04:43.794Z,101842.56
2023-02-04T07:07:13.802Z,101844.53
2023-02-04T07:09:42.694Z,101846.19
2023-02-04T07:12:11.129Z,101845.53
2023-02-04T07:14:39.691Z,101850.81
2023-02-04T07:17:08.211Z,101850.06
2023-02-04T07:19:36.631Z,101851.72
2023-02-04T07:22:05.417Z,101860.50
2023-02-04T07:24:35.874Z,101865.66
2023-02-04T07:27:04.645Z,101862.94
2023-02-04T07:29:32.944Z,101868.25
2023-02-04T07:32:01.509Z,101867.59
2023-02-04T07:34:30.072Z,101871.84
2023-02-04T07:36:58.945Z,101872.75
2023-02-04T07:39:27.584Z,101869.41
2023-02-04T07:41:57.754Z,101874.81
2023-02-04T07:44:34.228Z,101883.34
2023-02-04T07:47:02.658Z,101882.53
2023-02-04T07:49:31.154Z,101881.53
2023-02-04T07:51:59.943Z,101890.81
2023-02-04T07:54:28.495Z,101891.72
2023-02-04T07:56:58.310Z,101890.56
2023-02-04T07:59:26.802Z,101893.13
2023-02-04T08:01:55.262Z,101891.31
2023-02-04T08:04:23.737Z,101893.13
2023-02-04T08:06:52.103Z,101895.03
2023-02-04T08:09:20.604Z,101901.13
2023-02-04T08:11:48.957Z,101890.66
2023-02-04T08:14:18.768Z,101895.34
2023-02-04T08:16:47.234Z,101901.63
2023-02-04T08:19:19.174Z,101898.44
2023-02-04T08:21:47.820Z,101904.75
2023-02-04T08:24:17.433Z,101907.31
2023-02-04T08:26:46.381Z,101907.31
2023-02-04T08:29:15.072Z,101922.78
2023-02-04T08:31:45.146Z,101923.56
2023-02-04T08:34:13.608Z,101928.56
2023-02-04T08:36:42.055Z,101922.50
2023-02-04T08:39:10.560Z,101921.66
2023-02-04T08:41:39.048Z,101935.41
2023-02-04T08:44:08.175Z,101944.06
2023-02-04T08:46:36.856Z,101941.38
2023-02-04T08:49:06.718Z,101945.63
2023-02-04T08:51:35.142Z,101949.13
2023-02-04T08:54:03.973Z,101952.47
2023-02-04T08:56:32.542Z,101950.66
2023-02-04T08:59:00.900Z,101957.63
2023-02-04T09:01:29.447Z,101959.28
2023-02-04T09:03:57.913Z,101968.84
2023-02-04T09:06:27.744Z,101965.50
2023-02-04T09:08:56.255Z,101965.50
2023-02-04T09:11:24.648Z,101971.66
2023-02-04T09:13:53.091Z,101962.25
2023-02-04T09:16:21.707Z,101959.81
2023-02-04T09:18:50.367Z,101971.16
2023-02-04T09:21:18.945Z,101962.00
2023-02-04T09:23:49.221Z,101962.25
2023-02-04T09:26:17.772Z,101966.66
2023-02-04T09:28:47.526Z,101971.06
2023-02-04T09:31:17.012Z,101966.66
2023-02-04T09:33:45.789Z,101973.63
2023-02-04T09:36:14.216Z,101977.25
2023-02-04T09:38:42.618Z,101977.25
2023-02-04T09:41:15.586Z,101971.28
2023-02-04T09:43:46.519Z,101980.75
2023-02-04T09:46:22.530Z,101976.59
2023-02-04T09:48:52.697Z,101982.66
2023-02-04T09:51:24.218Z,101982.66
2023-02-04T09:53:54.999Z,101987.97
2023-02-04T09:56:25.818Z,101990.53
2023-02-04T09:58:54.212Z,101998.28
2023-02-04T10:01:23.246Z,102001.63
2023-02-04T10:03:51.884Z,102000.72
2023-02-04T10:06:23.135Z,102005.38
2023-02-04T10:08:53.247Z,102008.25
2023-02-04T10:11:24.795Z,102008.50
2023-02-04T10:13:56.101Z,102006.22
2023-02-04T10:16:30.046Z,102008.03
2023-02-04T10:18:59.909Z,102016.78
2023-02-04T10:21:32.324Z,102011.88
2023-02-04T10:24:10.797Z,102017.28
2023-02-04T10:26:41.128Z,102013.03
2023-02-04T10:29:16.012Z,102010.75
2023-02-04T10:31:47.426Z,102016.91
2023-02-04T10:34:19.235Z,102012.66
2023-02-04T10:36:50.076Z,102011.22
2023-02-04T10:39:21.478Z,102016.53
2023-02-04T10:41:53.913Z,102019.09
2023-02-04T10:44:28.077Z,102027.91
2023-02-04T10:47:04.481Z,102021.06
2023-02-04T10:49:33.758Z,102016.81
2023-02-04T10:52:03.841Z,102012.78
2023-02-04T10:54:39.086Z,102012.16
2023-02-04T10:57:21.677Z,102004.41
2023-02-04T10:59:54.644Z,102004.41
2023-02-04T11:02:44.497Z,101999.25
2023-02-04T11:05:16.731Z,102005.41
2023-02-04T11:07:46.930Z,102013.16
2023-02-04T11:10:18.474Z,102010.59
2023-02-04T11:13:01.690Z,102014.34
2023-02-04T11:15:50.208Z,102023.00
2023-02-04T11:18:33.897Z,102016.03
2023-02-04T11:21:02.363Z,102023.00
2023-02-04T11:23:37.229Z,102017.19
2023-02-04T11:26:13.255Z,102018.31
2023-02-04T11:29:10.484Z,102014.72
2023-02-04T11:31:58.719Z,102009.28
2023-02-04T11:34:31.979Z,102020.66
2023-02-04T11:37:30.133Z,102021.03
2023-02-04T11:40:02.143Z,102020.28
2023-02-04T11:42:40.198Z,102017.69
2023-02-04T11:45:17.176Z,102009.19
2023-02-04T11:47:46.158Z,102013.66
2023-02-04T11:50:20.987Z,102016.53
2023-02-04T11:52:49.434Z,102008.66
2023-02-04T11:55:19.204Z,102015.63
2023-02-04T11:57:52.927Z,102019.13
2023-02-04T12:00:25.439Z,102015.47
2023-02-04T12:02:59.534Z,102017.31
2023-02-04T12:05:41.940Z,102022.47
2023-02-04T12:08:24.480Z,102022.47
2023-02-04T12:11:09.315Z,102020.16
2023-02-04T12:13:50.393Z,102025.44
2023-02-04T12:16:20.638Z,102025.44
2023-02-04T12:18:49.514Z,102025.56
2023-02-04T12:21:18.804Z,102021.03
2023-02-04T12:23:47.268Z,102029.69
2023-02-04T12:26:15.833Z,102022.22
2023-02-04T12:28:44.221Z,102017.28
2023-02-04T12:31:12.823Z,102020.91
2023-02-04T12:33:42.597Z,102021.28
2023-02-04T12:36:11.106Z,102022.97
2023-02-04T12:38:39.552Z,102027.22
2023-02-04T12:41:08.106Z,102029.81
2023-02-04T12:43:36.465Z,102034.34
2023-02-04T12:46:05.586Z,102034.56
2023-02-04T12:48:34.045Z,102037.84
2023-02-04T12:51:04.248Z,102034.47
2023-02-04T12:53:32.680Z,102047.41
2023-02-04T12:56:01.576Z,102041.56
2023-02-04T12:58:29.966Z,102035.38
2023-02-04T13:00:58.502Z,102037.97
2023-02-04T13:03:27.012Z,102040.66
2023-02-04T13:05:55.990Z,102039.75
2023-02-04T13:08:26.139Z,102044.00
2023-02-04T13:10:55.413Z,102040.53
2023-02-04T13:13:24.250Z,102039.75
2023-02-04T13:15:52.948Z,102032.00
2023-02-04T13:18:21.372Z,102031.22
2023-02-04T13:20:49.744Z,102024.38
2023-02-04T13:23:18.156Z,102026.31
2023-02-04T13:25:47.964Z,102034.84
2023-02-04T13:28:16.402Z,102028.78
2023-02-04T13:30:44.973Z,102024.50
2023-02-04T13:33:13.390Z,102021.16
2023-02-04T13:35:41.817Z,102023.06
2023-02-04T13:38:10.380Z,102023.22
2023-02-04T13:40:39.284Z,102011.31
2023-02-04T13:43:09.218Z,102015.69
2023-02-04T13:45:37.720Z,102021.00
2023-02-04T13:48:06.245Z,102016.59
2023-02-04T13:50:35.117Z,102016.59
2023-02-04T13:53:03.830Z,102022.66
2023-02-04T13:55:32.667Z,102020.84
2023-02-04T13:58:01.282Z,102021.66
2023-02-04T14:00:31.818Z,102014.00
2023-02-04T14:03:00.514Z,102016.88
2023-02-04T14:05:32.077Z,102012.06
2023-02-04T14:08:00.841Z,102011.44
2023-02-04T14:10:29.492Z,102011.81
2023-02-04T14:12:58.615Z,102007.13
2023-02-04T14:15:27.130Z,101998.09
2023-02-04T14:17:57.228Z,102009.59
2023-02-04T14:20:25.727Z,102012.53
2023-02-04T14:22:54.075Z,102011.75
2023-02-04T14:25:22.920Z,102011.91
2023-02-04T14:27:51.609Z,102009.94
2023-02-04T14:30:22.803Z,102013.44
2023-02-04T14:32:51.322Z,102017.47
2023-02-04T14:35:21.606Z,102020.84
2023-02-04T14:37:50.296Z,102019.00
2023-02-04T14:40:20.858Z,102019.00
2023-02-04T14:42:49.297Z,102022.66
2023-02-04T14:45:17.947Z,102024.47
2023-02-04T14:47:46.688Z,102020.19
2023-02-04T14:50:18.020Z,102022.09
2023-02-04T14:52:47.993Z,102017.06
2023-02-04T14:55:16.951Z,102020.44
2023-02-04T14:57:45.350Z,102017.06
2023-02-04T15:00:15.982Z,102019.66
2023-02-04T15:02:44.802Z,102020.78
2023-02-04T15:05:13.448Z,102025.88
2023-02-04T15:07:42.153Z,102024.03
2023-02-04T15:10:15.256Z,102018.75
2023-02-04T15:12:43.864Z,102027.41
2023-02-04T15:15:12.846Z,102030.13
2023-02-04T15:17:41.212Z,102023.16
2023-02-04T15:20:11.243Z,102021.34
2023-02-04T15:22:39.706Z,102024.97
2023-02-04T15:25:08.318Z,102027.53
2023-02-04T15:27:38.177Z,102026.88
2023-02-04T15:30:08.734Z,102029.44
2023-02-04T15:32:37.570Z,102035.53
2023-02-04T15:35:08.302Z,102024.28
2023-02-04T15:37:36.836Z,102032.03
2023-02-04T15:40:06.277Z,102025.97
2023-02-04T15:42:34.955Z,102031.13
2023-02-04T15:45:06.550Z,102032.94
2023-02-04T15:47:35.444Z,102033.84
2023-02-04T15:50:06.495Z,102031.91
2023-02-04T15:52:34.957Z,102033.72
2023-02-04T15:55:03.482Z,102037.88
2023-02-04T15:57:32.265Z,102049.22
2023-02-04T16:00:00.728Z,102046.66
2023-02-04T16:02:30.924Z,102061.38
2023-02-04T16:04:59.526Z,102051.03
2023-02-04T16:07:27.943Z,102046.66
2023-02-04T16:09:56.567Z,102044.97
2023-02-04T16:12:25.445Z,102057.75
2023-02-04T16:14:54.093Z,102055.97
2023-02-04T16:17:22.576Z,102060.25
2023-02-04T16:19:52.553Z,102063.47
2023-02-04T16:22:21.213Z,102062.34
2023-02-04T16:24:49.770Z,102072.41
2023-02-04T16:27:18.327Z,102070.50
2023-02-04T16:29:47.273Z,102072.75
2023-02-04T16:32:16.459Z,102074.56
2023-02-04T16:34:44.843Z,102079.63
2023-02-04T16:37:15.000Z,102082.34
2023-02-04T16:39:45.243Z,102089.34
2023-02-04T16:42:14.075Z,102083.41
2023-02-04T16:44:42.557Z,102084.19
2023-02-04T16:47:11.716Z,102091.16
2023-02-04T16:49:40.422Z,102088.72
2023-02-04T16:52:08.888Z,102084.44
2023-02-04T16:54:39.201Z,102091.31
2023-02-04T16:57:08.162Z,102098.16
2023-02-04T16:59:38.272Z,102096.34
2023-02-04T17:02:06.908Z,102108.97
2023-02-04T17:04:35.444Z,102112.06
2023-02-04T17:07:05.295Z,102104.84
2023-02-04T17:09:33.807Z,102110.53
2023-02-04T17:12:03.991Z,102113.91
2023-02-04T17:14:32.579Z,102112.09
2023-02-04T17:17:00.872Z,102106.03
2023-02-04T17:19:29.668Z,102115.44
2023-02-04T17:21:59.069Z,102108.47
2023-02-04T17:24:27.695Z,102112.59
2023-02-04T17:26:56.134Z,102120.09
2023-02-04T17:29:26.257Z,102116.63
2023-02-04T17:31:55.866Z,102113.88
2023-02-04T17:34:24.491Z,102108.63
2023-02-04T17:36:53.452Z,102107.44
2023-02-04T17:39:21.804Z,102109.00
2023-02-04T17:41:50.447Z,102113.91
2023-02-04T17:44:20.134Z,102115.47
2023-02-04T17:46:50.043Z,102116.09
2023-02-04T17:49:18.429Z,102117.66
2023-02-04T17:51:46.912Z,102120.13
2023-02-04T17:54:15.935Z,102109.66
2023-02-04T17:56:44.617Z,102111.31
2023-02-04T17:59:12.952Z,102111.19
2023-02-04T18:01:42.885Z,102105.88
2023-02-04T18:04:14.981Z,102107.44
2023-02-04T18:06:43.513Z,102109.00
2023-02-04T18:09:18.616Z,102112.34
2023-02-04T18:11:47.431Z,102118.16
2023-02-04T18:14:21.264Z,102111.19
2023-02-04T18:16:50.158Z,102113.63
2023-02-04T18:19:23.803Z,102127.31
2023-02-04T18:21:52.292Z,102118.56
2023-02-04T18:24:30.252Z,102122.81
2023-02-04T18:27:04.611Z,102124.50
2023-02-04T18:29:36.383Z,102120.84
2023-02-04T18:32:14.472Z,102126.03
2023-02-04T18:34:46.883Z,102122.53
2023-02-04T18:37:31.035Z,102114.69
2023-02-04T18:40:30.452Z,102116.97
2023-02-04T18:43:11.437Z,102116.84
2023-02-04T18:45:40.131Z,102119.31
2023-02-04T18:48:56.212Z,102116.59
2023-02-04T18:51:33.203Z,102109.63
2023-02-04T18:54:33.366Z,102121.50
2023-02-04T18:57:29.127Z,102123.19
2023-02-04T19:00:27.760Z,102122.00
2023-02-04T19:02:59.645Z,102125.25
2023-02-04T19:05:34.383Z,102120.47
2023-02-04T19:08:28.163Z,102123.53
2023-02-04T19:10:58.464Z,102119.00
2023-02-04T19:13:35.580Z,102126.00
2023-02-04T19:16:14.300Z,102126.00
2023-02-04T19:18:43.451Z,102125.09
2023-02-04T19:21:25.970Z,102130.34
2023-02-04T19:24:06.174Z,102122.63
2023-02-04T19:26:37.296Z,102120.94
2023-02-04T19:29:38.597Z,102119.91
2023-02-04T19:32:25.735Z,102121.75
2023-02-04T19:34:55.403Z,102122.38
2023-02-04T19:37:26.617Z,102133.75
2023-02-04T19:39:57.339Z,102134.50
2023-02-04T19:42:33.448Z,102133.75
2023-02-04T19:45:03.563Z,102126.00
2023-02-04T19:47:42.517Z,102127.78
2023-02-04T19:50:29.627Z,102132.69
2023-02-04T19:53:02.819Z,102130.09
2023-02-04T19:55:37.543Z,102135.41
2023-02-04T19:58:18.621Z,102140.44
2023-02-04T20:00:58.908Z,102137.84
2023-02-04T20:03:40.967Z,102137.84
2023-02-04T20:06:31.176Z,102141.19
2023-02-04T20:09:02.887Z,102138.63
2023-02-04T20:12:05.725Z,102141.97
2023-02-04T20:14:49.666Z,102136.56
2023-02-04T20:17:37.686Z,102142.47
2023-02-04T20:20:27.733Z,102146.59
2023-02-04T20:22:59.269Z,102139.50
2023-02-04T20:25:45.558Z,102142.09
2023-02-04T20:28:30.068Z,102129.19
2023-02-04T20:31:01.640Z,102125.84
2023-02-04T20:33:36.545Z,102113.03
2023-02-04T20:36:42.500Z,102123.38
2023-02-04T20:39:34.282Z,102116.41
2023-02-04T20:42:38.743Z,102116.41
2023-02-04T20:45:27.892Z,102122.50
2023-02-04T20:48:00.806Z,102113.84
2023-02-04T20:50:39.391Z,102120.00
2023-02-04T20:53:32.308Z,102125.06
2023-02-04T20:56:04.761Z,102121.59
2023-02-04T20:58:39.099Z,102111.25
2023-02-04T21:01:24.293Z,102109.44
2023-02-04T21:03:52.958Z,102113.69
2023-02-04T21:06:25.751Z,102107.00
2023-02-04T21:08:56.533Z,102107.88
2023-02-04T21:11:26.315Z,102106.09
2023-02-04T21:13:55.746Z,102103.50
2023-02-04T21:16:25.866Z,102106.09
2023-02-04T21:18:54.808Z,102116.41
2023-02-04T21:21:24.543Z,102120.66
2023-02-04T21:23:53.352Z,102119.75
2023-02-04T21:26:21.835Z,102122.34
2023-02-04T21:28:50.431Z,102124.94
2023-02-04T21:31:19.603Z,102118.72
2023-02-04T21:33:50.205Z,102128.28
2023-02-04T21:36:18.652Z,102127.22
2023-02-04T21:38:47.753Z,102127.22
2023-02-04T21:41:16.842Z,102124.63
2023-02-04T21:43:45.301Z,102129.81
2023-02-04T21:46:14.128Z,102131.47
2023-02-04T21:48:42.931Z,102133.16
2023-02-04T21:51:13.357Z,102130.56
2023-02-04T21:53:42.103Z,102134.97
2023-02-04T21:56:11.464Z,102129.81
2023-02-04T21:58:39.906Z,102127.13
2023-02-04T22:01:10.287Z,102121.03
2023-02-04T22:03:38.857Z,102124.53
2023-02-04T22:06:08.601Z,102124.53
2023-02-04T22:08:38.852Z,102132.13
2023-02-04T22:11:07.306Z,102123.63
2023-02-04T22:13:53.829Z,102123.47
2023-02-04T22:16:22.312Z,102117.41
2023-02-04T22:18:50.708Z,102107.09
2023-02-04T22:21:19.141Z,102100.13
2023-02-04T22:23:49.159Z,102102.84
2023-02-04T22:26:17.752Z,102101.94
2023-02-04T22:28:46.189Z,102091.59
2023-02-04T22:31:14.981Z,102090.69
2023-02-04T22:33:43.436Z,102089.78
2023-02-04T22:36:12.400Z,102088.84
2023-02-04T22:38:41.051Z,102087.22
2023-02-04T22:41:11.047Z,102085.25
2023-02-04T22:43:39.460Z,102086.91
2023-02-04T22:46:07.950Z,102090.41
2023-02-04T22:48:36.494Z,102088.59
2023-02-04T22:51:05.110Z,102087.69
2023-02-04T22:53:33.627Z,102090.13
2023-02-04T22:56:02.021Z,102087.41
2023-02-04T22:58:31.898Z,102088.22
2023-02-04T23:01:00.375Z,102094.13
2023-02-04T23:03:28.886Z,102099.28
2023-02-04T23:05:57.378Z,102112.19
2023-02-04T23:08:26.178Z,102118.13
2023-02-04T23:10:54.812Z,102119.66
2023-02-04T23:13:23.673Z,102111.91
2023-02-04T23:15:53.624Z,102109.31
2023-02-04T23:18:22.290Z,102112.72
2023-02-04T23:20:50.891Z,102107.53
2023-02-04T23:23:19.298Z,102108.41
2023-02-04T23:25:48.942Z,102108.41
2023-02-04T23:28:18.071Z,102102.38
2023-02-04T23:30:46.919Z,102103.16
2023-02-04T23:33:17.082Z,102113.56
2023-02-04T23:35:45.627Z,102103.25
2023-02-04T23:38:14.531Z,102094.66
2023-02-04T23:40:43.072Z,102104.16
2023-02-04T23:43:11.464Z,102112.72
2023-02-04T23:45:40.260Z,102108.41
2023-02-04T23:48:08.672Z,102100.69
2023-02-04T23:50:38.493Z,102097.22
2023-02-04T23:53:06.917Z,102091.25
2023-02-04T23:55:36.230Z,102085.34
2023-02-04T23:58:04.890Z,102088.69
